sensor_id;sensor_type;location;lat;lon;timestamp;P1;durP1;ratioP1;P2;durP2;ratioP2
60054;SDS011;45930;53.514;55.904;2023-09-18T00:00:18;32.17;;;24.13;;
60054;SDS011;45930;53.514;55.904;2023-09-18T00:01:21;34.40;;;23.30;;
60054;SDS011;45930;53.514;55.904;2023-09-18T00:02:22;32.28;;;23.15;;
60054;SDS011;45930;53.514;55.904;2023-09-18T00:03:23;36.25;;;24.55;;
60054;SDS011;45930;53.514;55.904;2023-09-18T00:04:25;33.40;;;24.23;;
60054;SDS011;45930;53.514;55.904;2023-09-18T00:05:27;31.73;;;22.70;;
60054;SDS011;45930;53.514;55.904;2023-09-18T00:06:28;31.63;;;22.70;;
60054;SDS011;45930;53.514;55.904;2023-09-18T00:07:30;31.15;;;23.20;;
60054;SDS011;45930;53.514;55.904;2023-09-18T00:08:31;27.65;;;21.85;;
60054;SDS011;45930;53.514;55.904;2023-09-18T00:09:32;33.20;;;23.35;;
60054;SDS011;45930;53.514;55.904;2023-09-18T00:10:33;26.67;;;20.85;;
60054;SDS011;45930;53.514;55.904;2023-09-18T00:11:34;25.00;;;19.10;;
60054;SDS011;45930;53.514;55.904;2023-09-18T00:12:35;24.38;;;18.85;;
60054;SDS011;45930;53.514;55.904;2023-09-18T00:13:37;55.30;;;20.33;;
60054;SDS011;45930;53.514;55.904;2023-09-18T00:14:38;47.10;;;22.23;;
60054;SDS011;45930;53.514;55.904;2023-09-18T00:15:39;39.83;;;21.45;;
60054;SDS011;45930;53.514;55.904;2023-09-18T00:16:41;51.28;;;24.60;;
60054;SDS011;45930;53.514;55.904;2023-09-18T00:17:43;36.50;;;21.45;;
60054;SDS011;45930;53.514;55.904;2023-09-18T00:18:44;26.33;;;21.20;;
60054;SDS011;45930;53.514;55.904;2023-09-18T00:19:46;30.48;;;20.70;;
60054;SDS011;45930;53.514;55.904;2023-09-18T00:20:47;31.45;;;21.15;;
60054;SDS011;45930;53.514;55.904;2023-09-18T00:21:50;28.60;;;22.75;;
60054;SDS011;45930;53.514;55.904;2023-09-18T00:22:55;29.42;;;21.30;;
60054;SDS011;45930;53.514;55.904;2023-09-18T00:23:56;25.60;;;20.77;;
60054;SDS011;45930;53.514;55.904;2023-09-18T00:25:00;28.42;;;22.00;;
60054;SDS011;45930;53.514;55.904;2023-09-18T00:26:04;28.27;;;21.85;;
60054;SDS011;45930;53.514;55.904;2023-09-18T00:27:05;34.92;;;23.35;;
60054;SDS011;45930;53.514;55.904;2023-09-18T00:28:07;58.30;;;25.38;;
60054;SDS011;45930;53.514;55.904;2023-09-18T00:29:09;44.13;;;23.75;;
60054;SDS011;45930;53.514;55.904;2023-09-18T00:30:09;52.83;;;22.58;;
60054;SDS011;45930;53.514;55.904;2023-09-18T00:31:11;45.75;;;23.40;;
60054;SDS011;45930;53.514;55.904;2023-09-18T00:32:13;29.80;;;21.70;;
60054;SDS011;45930;53.514;55.904;2023-09-18T00:33:14;31.40;;;21.58;;
60054;SDS011;45930;53.514;55.904;2023-09-18T00:34:15;90.20;;;24.67;;
60054;SDS011;45930;53.514;55.904;2023-09-18T00:35:16;115.68;;;25.15;;
60054;SDS011;45930;53.514;55.904;2023-09-18T00:36:17;51.85;;;21.05;;
60054;SDS011;45930;53.514;55.904;2023-09-18T00:37:18;29.48;;;21.98;;
60054;SDS011;45930;53.514;55.904;2023-09-18T00:38:19;25.77;;;20.45;;
60054;SDS011;45930;53.514;55.904;2023-09-18T00:39:20;23.67;;;18.88;;
60054;SDS011;45930;53.514;55.904;2023-09-18T00:40:22;19.58;;;16.15;;
60054;SDS011;45930;53.514;55.904;2023-09-18T00:41:23;21.92;;;17.15;;
60054;SDS011;45930;53.514;55.904;2023-09-18T00:42:24;21.95;;;17.00;;
60054;SDS011;45930;53.514;55.904;2023-09-18T00:43:25;22.45;;;17.92;;
60054;SDS011;45930;53.514;55.904;2023-09-18T00:44:26;24.48;;;18.98;;
60054;SDS011;45930;53.514;55.904;2023-09-18T00:45:28;20.00;;;17.33;;
60054;SDS011;45930;53.514;55.904;2023-09-18T00:46:30;21.50;;;17.35;;
60054;SDS011;45930;53.514;55.904;2023-09-18T00:47:32;24.33;;;18.45;;
60054;SDS011;45930;53.514;55.904;2023-09-18T00:48:33;22.63;;;18.42;;
60054;SDS011;45930;53.514;55.904;2023-09-18T00:49:35;22.30;;;17.25;;
60054;SDS011;45930;53.514;55.904;2023-09-18T00:50:39;22.52;;;17.13;;
60054;SDS011;45930;53.514;55.904;2023-09-18T00:51:41;22.77;;;18.33;;
60054;SDS011;45930;53.514;55.904;2023-09-18T00:52:42;23.45;;;17.00;;
60054;SDS011;45930;53.514;55.904;2023-09-18T00:53:43;25.60;;;18.77;;
60054;SDS011;45930;53.514;55.904;2023-09-18T00:54:48;24.40;;;19.25;;
60054;SDS011;45930;53.514;55.904;2023-09-18T00:55:50;30.77;;;19.42;;
60054;SDS011;45930;53.514;55.904;2023-09-18T00:56:54;34.97;;;21.33;;
60054;SDS011;45930;53.514;55.904;2023-09-18T00:57:56;30.10;;;19.85;;
60054;SDS011;45930;53.514;55.904;2023-09-18T00:58:57;31.23;;;20.05;;
60054;SDS011;45930;53.514;55.904;2023-09-18T00:59:59;26.38;;;18.77;;
60054;SDS011;45930;53.514;55.904;2023-09-18T01:01:00;27.70;;;19.70;;
60054;SDS011;45930;53.514;55.904;2023-09-18T01:02:02;32.45;;;20.15;;
60054;SDS011;45930;53.514;55.904;2023-09-18T01:03:03;33.08;;;20.77;;
60054;SDS011;45930;53.514;55.904;2023-09-18T01:04:05;33.80;;;20.83;;
60054;SDS011;45930;53.514;55.904;2023-09-18T01:05:07;32.75;;;20.02;;
60054;SDS011;45930;53.514;55.904;2023-09-18T01:06:08;30.88;;;20.20;;
60054;SDS011;45930;53.514;55.904;2023-09-18T01:07:10;36.72;;;21.35;;
60054;SDS011;45930;53.514;55.904;2023-09-18T01:08:11;39.75;;;20.85;;
60054;SDS011;45930;53.514;55.904;2023-09-18T01:09:12;122.07;;;25.00;;
60054;SDS011;45930;53.514;55.904;2023-09-18T01:10:13;63.53;;;22.27;;
60054;SDS011;45930;53.514;55.904;2023-09-18T01:11:31;31.42;;;17.70;;
60054;SDS011;45930;53.514;55.904;2023-09-18T01:12:42;27.65;;;18.48;;
60054;SDS011;45930;53.514;55.904;2023-09-18T01:14:00;31.80;;;19.67;;
60054;SDS011;45930;53.514;55.904;2023-09-18T01:15:21;28.88;;;16.77;;
60054;SDS011;45930;53.514;55.904;2023-09-18T01:16:32;56.38;;;18.95;;
60054;SDS011;45930;53.514;55.904;2023-09-18T01:17:39;25.13;;;18.13;;
60054;SDS011;45930;53.514;55.904;2023-09-18T01:18:50;26.80;;;18.42;;
60054;SDS011;45930;53.514;55.904;2023-09-18T01:19:51;29.40;;;19.40;;
60054;SDS011;45930;53.514;55.904;2023-09-18T01:20:52;36.17;;;20.05;;
60054;SDS011;45930;53.514;55.904;2023-09-18T01:21:53;29.15;;;19.52;;
60054;SDS011;45930;53.514;55.904;2023-09-18T01:22:54;29.13;;;18.30;;
60054;SDS011;45930;53.514;55.904;2023-09-18T01:23:55;30.65;;;17.98;;
60054;SDS011;45930;53.514;55.904;2023-09-18T01:24:55;39.42;;;16.95;;
60054;SDS011;45930;53.514;55.904;2023-09-18T01:25:56;31.50;;;17.27;;
60054;SDS011;45930;53.514;55.904;2023-09-18T01:26:57;37.97;;;17.65;;
60054;SDS011;45930;53.514;55.904;2023-09-18T01:27:58;40.08;;;16.40;;
60054;SDS011;45930;53.514;55.904;2023-09-18T01:28:58;36.65;;;18.35;;
60054;SDS011;45930;53.514;55.904;2023-09-18T01:29:59;32.47;;;16.30;;
60054;SDS011;45930;53.514;55.904;2023-09-18T01:31:00;28.67;;;17.10;;
60054;SDS011;45930;53.514;55.904;2023-09-18T01:32:01;36.33;;;17.98;;
60054;SDS011;45930;53.514;55.904;2023-09-18T01:33:02;40.28;;;18.70;;
60054;SDS011;45930;53.514;55.904;2023-09-18T01:34:05;40.40;;;16.25;;
60054;SDS011;45930;53.514;55.904;2023-09-18T01:35:07;87.43;;;23.38;;
60054;SDS011;45930;53.514;55.904;2023-09-18T01:36:10;62.47;;;21.00;;
60054;SDS011;45930;53.514;55.904;2023-09-18T01:37:12;67.55;;;20.33;;
60054;SDS011;45930;53.514;55.904;2023-09-18T01:38:14;68.22;;;25.40;;
60054;SDS011;45930;53.514;55.904;2023-09-18T01:39:15;64.05;;;20.63;;
60054;SDS011;45930;53.514;55.904;2023-09-18T01:40:17;33.55;;;16.73;;
60054;SDS011;45930;53.514;55.904;2023-09-18T01:41:19;24.60;;;16.02;;
60054;SDS011;45930;53.514;55.904;2023-09-18T01:42:21;24.67;;;16.08;;
60054;SDS011;45930;53.514;55.904;2023-09-18T01:43:23;22.02;;;15.60;;
60054;SDS011;45930;53.514;55.904;2023-09-18T01:44:24;21.65;;;15.77;;
60054;SDS011;45930;53.514;55.904;2023-09-18T01:45:25;25.30;;;16.77;;
60054;SDS011;45930;53.514;55.904;2023-09-18T01:46:26;27.38;;;16.30;;
60054;SDS011;45930;53.514;55.904;2023-09-18T01:47:27;29.10;;;16.48;;
60054;SDS011;45930;53.514;55.904;2023-09-18T01:48:28;26.08;;;16.92;;
60054;SDS011;45930;53.514;55.904;2023-09-18T01:49:30;34.80;;;19.17;;
60054;SDS011;45930;53.514;55.904;2023-09-18T01:50:33;31.20;;;17.55;;
60054;SDS011;45930;53.514;55.904;2023-09-18T01:51:34;27.13;;;16.55;;
